createdAt,value
2018-10-21T00:02:06.657Z,10.77
2018-10-21T00:04:36.976Z,10.37
2018-10-21T00:07:07.351Z,10.47
2018-10-21T00:09:37.702Z,11.33
2018-10-21T00:12:08.410Z,10.90
2018-10-21T00:14:39.053Z,11.03
2018-10-21T00:17:09.275Z,12.30
2018-10-21T00:19:39.660Z,12.33
2018-10-21T00:22:10.057Z,12.20
2018-10-21T00:24:40.465Z,11.40
2018-10-21T00:27:11.034Z,12.40
2018-10-21T00:29:41.038Z,12.40
2018-10-21T00:32:11.390Z,11.97
2018-10-21T00:34:41.727Z,12.97
2018-10-21T00:37:12.209Z,13.47
2018-10-21T00:39:42.443Z,13.70
2018-10-21T00:42:12.595Z,13.67
2018-10-21T00:44:42.727Z,14.33
2018-10-21T00:47:13.229Z,15.33
2018-10-21T00:49:43.403Z,14.90
2018-10-21T00:52:14.202Z,14.00
2018-10-21T00:54:44.404Z,15.77
2018-10-21T00:57:14.736Z,15.93
2018-10-21T00:59:44.957Z,18.30
2018-10-21T01:02:15.323Z,15.73
2018-10-21T01:04:46.341Z,14.60
2018-10-21T01:07:17.075Z,14.50
2018-10-21T01:09:47.817Z,13.17
2018-10-21T01:12:18.129Z,14.40
2018-10-21T01:14:48.383Z,13.40
2018-10-21T01:17:18.802Z,13.40
2018-10-21T01:19:49.324Z,13.40
2018-10-21T01:22:20.027Z,13.53
2018-10-21T01:24:50.273Z,14.30
2018-10-21T01:27:20.645Z,13.97
2018-10-21T01:29:51.946Z,13.03
2018-10-21T01:32:22.247Z,13.80
2018-10-21T01:34:52.419Z,14.93
2018-10-21T01:37:22.910Z,14.50
2018-10-21T01:40:57.763Z,13.43
2018-10-21T01:43:31.633Z,13.77
2018-10-21T01:46:02.431Z,13.67
2018-10-21T01:48:33.305Z,15.10
2018-10-21T01:51:03.650Z,13.27
2018-10-21T01:53:33.909Z,13.50
2018-10-21T01:56:04.427Z,13.43
2018-10-21T01:58:34.710Z,12.50
2018-10-21T02:01:04.771Z,13.30
2018-10-21T02:03:35.060Z,14.90
2018-10-21T02:06:05.441Z,14.93
2018-10-21T02:08:35.874Z,15.50
2018-10-21T02:11:06.026Z,15.20
2018-10-21T02:13:36.322Z,16.20
2018-10-21T02:16:06.853Z,15.63
2018-10-21T02:18:37.046Z,16.57
2018-10-21T02:21:07.315Z,17.60
2018-10-21T02:23:37.718Z,18.03
2018-10-21T02:26:07.613Z,16.60
2018-10-21T02:28:37.496Z,15.63
2018-10-21T02:31:07.437Z,15.43
2018-10-21T02:33:37.826Z,15.83
2018-10-21T02:36:07.994Z,15.03
2018-10-21T02:38:37.975Z,15.87
2018-10-21T02:41:34.662Z,15.43
2018-10-21T02:44:05.632Z,15.40
2018-10-21T02:46:36.620Z,15.93
2018-10-21T02:49:07.409Z,15.97
2018-10-21T02:51:37.351Z,15.43
2018-10-21T02:54:07.812Z,16.37
2018-10-21T02:56:38.186Z,15.23
2018-10-21T02:59:08.364Z,14.57
2018-10-21T03:01:38.489Z,14.90
2018-10-21T03:04:08.791Z,15.07
2018-10-21T03:06:38.890Z,16.00
2018-10-21T03:09:09.754Z,15.67
2018-10-21T03:11:39.946Z,15.67
2018-10-21T03:14:10.004Z,15.73
2018-10-21T03:16:40.152Z,15.83
2018-10-21T03:19:10.185Z,14.80
2018-10-21T03:21:40.454Z,16.00
2018-10-21T03:24:10.499Z,14.23
2018-10-21T03:26:40.685Z,14.37
2018-10-21T03:29:11.035Z,15.93
2018-10-21T03:31:41.927Z,15.27
2018-10-21T03:34:11.809Z,14.50
2018-10-21T03:36:48.792Z,15.93
2018-10-21T03:39:19.594Z,14.73
2018-10-21T03:41:49.673Z,15.37
2018-10-21T03:44:20.406Z,15.93
2018-10-21T03:46:50.406Z,15.87
2018-10-21T03:49:21.301Z,15.67
2018-10-21T03:51:51.119Z,15.70
2018-10-21T03:54:21.837Z,15.03
2018-10-21T03:56:51.661Z,16.73
2018-10-21T03:59:22.325Z,15.97
2018-10-21T04:01:52.597Z,16.73
2018-10-21T04:04:23.166Z,16.83
2018-10-21T04:06:53.505Z,16.77
2018-10-21T04:09:25.288Z,15.63
2018-10-21T04:11:55.380Z,17.17
2018-10-21T04:14:25.432Z,16.40
2018-10-21T04:16:55.752Z,15.73
2018-10-21T04:19:25.922Z,15.67
2018-10-21T04:21:56.199Z,15.87
2018-10-21T04:24:28.022Z,16.20
2018-10-21T04:26:58.518Z,15.73
2018-10-21T04:29:29.286Z,16.50
2018-10-21T04:31:59.422Z,15.63
2018-10-21T04:34:29.433Z,15.20
2018-10-21T04:37:08.974Z,16.33
2018-10-21T04:39:49.677Z,19.37
2018-10-21T04:42:19.727Z,15.73
2018-10-21T04:44:49.666Z,17.17
2018-10-21T04:47:20.169Z,16.53
2018-10-21T04:49:50.143Z,16.63
2018-10-21T04:52:22.100Z,15.90
2018-10-21T04:54:52.685Z,16.57
2018-10-21T04:57:22.636Z,16.20
2018-10-21T04:59:53.042Z,15.40
2018-10-21T05:02:23.712Z,15.33
2018-10-21T05:04:53.697Z,17.47
2018-10-21T05:07:24.772Z,16.30
2018-10-21T05:09:54.600Z,16.80
2018-10-21T05:12:25.145Z,16.80
2018-10-21T05:14:55.137Z,16.83
2018-10-21T05:17:25.365Z,16.00
2018-10-21T05:19:55.649Z,17.60
2018-10-21T05:22:26.016Z,15.70
2018-10-21T05:24:56.004Z,17.80
2018-10-21T05:27:26.196Z,18.13
2018-10-21T05:29:56.518Z,17.10
2018-10-21T05:32:33.149Z,17.93
2018-10-21T05:35:04.033Z,20.87
2018-10-21T05:37:34.199Z,17.20
2018-10-21T05:40:04.372Z,18.07
2018-10-21T05:42:34.813Z,18.97
2018-10-21T05:45:08.157Z,19.10
2018-10-21T05:47:39.154Z,19.50
2018-10-21T05:50:11.140Z,18.67
2018-10-21T05:52:41.918Z,18.57
2018-10-21T05:55:12.921Z,19.33
2018-10-21T05:57:42.878Z,18.40
2018-10-21T06:00:16.614Z,18.27
2018-10-21T06:02:47.025Z,18.23
2018-10-21T06:05:34.265Z,18.80
2018-10-21T06:08:04.413Z,18.83
2018-10-21T06:10:35.245Z,18.10
2018-10-21T06:13:05.754Z,19.17
2018-10-21T06:15:36.316Z,20.20
2018-10-21T06:18:13.493Z,20.40
2018-10-21T06:20:46.048Z,22.13
2018-10-21T06:23:16.343Z,20.97
2018-10-21T06:25:47.068Z,22.33
2018-10-21T06:28:17.745Z,22.10
2018-10-21T06:30:47.881Z,19.50
2018-10-21T06:33:17.912Z,20.03
2018-10-21T06:35:48.131Z,18.90
2018-10-21T06:38:18.807Z,18.90
2018-10-21T06:40:49.337Z,20.67
2018-10-21T06:43:19.934Z,20.83
2018-10-21T06:45:50.288Z,21.90
2018-10-21T06:48:20.764Z,19.77
2018-10-21T06:50:50.682Z,21.07
2018-10-21T06:53:21.058Z,20.40
2018-10-21T06:55:51.804Z,21.27
2018-10-21T06:58:22.293Z,20.30
2018-10-21T07:00:52.863Z,22.17
2018-10-21T07:03:23.161Z,21.03
2018-10-21T07:06:25.296Z,21.20
2018-10-21T07:08:56.950Z,19.60
2018-10-21T07:11:27.214Z,21.17
2018-10-21T07:13:57.768Z,19.30
2018-10-21T07:16:28.203Z,19.67
2018-10-21T07:18:58.376Z,19.87
2018-10-21T07:21:28.740Z,20.57
2018-10-21T07:23:59.270Z,21.20
2018-10-21T07:26:29.915Z,24.30
2018-10-21T07:29:00.374Z,23.87
2018-10-21T07:31:30.700Z,22.97
2018-10-21T07:34:01.284Z,25.37
2018-10-21T07:36:31.268Z,25.13
2018-10-21T07:39:01.471Z,26.60
2018-10-21T07:41:31.767Z,26.77
2018-10-21T07:44:02.075Z,27.43
2018-10-21T07:46:32.777Z,28.87
2018-10-21T07:49:03.426Z,27.43
2018-10-21T07:51:33.421Z,27.03
2018-10-21T07:54:03.945Z,26.43
2018-10-21T07:56:34.029Z,25.47
2018-10-21T07:59:04.469Z,24.57
2018-10-21T08:01:35.110Z,24.43
2018-10-21T08:04:05.561Z,23.90
2018-10-21T08:06:46.451Z,22.97
2018-10-21T08:09:17.115Z,23.10
2018-10-21T08:11:47.906Z,22.53
2018-10-21T08:14:18.432Z,22.73
2018-10-21T08:16:48.657Z,21.40
2018-10-21T08:19:18.791Z,21.53
2018-10-21T08:21:48.919Z,22.23
2018-10-21T08:24:19.285Z,22.60
2018-10-21T08:26:49.779Z,21.27
2018-10-21T08:29:22.083Z,21.50
2018-10-21T08:31:52.709Z,21.13
2018-10-21T08:34:23.171Z,20.73
2018-10-21T08:36:53.430Z,20.30
2018-10-21T08:39:24.301Z,20.57
2018-10-21T08:41:54.782Z,20.20
2018-10-21T08:44:24.778Z,20.40
2018-10-21T08:46:55.469Z,19.23
2018-10-21T08:49:25.357Z,20.10
2018-10-21T08:51:57.838Z,19.73
2018-10-21T08:54:28.362Z,19.47
2018-10-21T08:56:58.421Z,19.23
2018-10-21T08:59:28.940Z,18.77
2018-10-21T09:01:58.991Z,18.00
2018-10-21T09:04:32.270Z,18.53
2018-10-21T09:07:10.304Z,19.23
2018-10-21T09:09:43.368Z,18.60
2018-10-21T09:12:13.775Z,17.30
2018-10-21T09:14:49.799Z,16.93
2018-10-21T09:17:28.000Z,17.10
2018-10-21T09:20:00.646Z,17.40
2018-10-21T09:22:31.199Z,16.67
2018-10-21T09:25:05.368Z,15.17
2018-10-21T09:27:40.029Z,14.93
2018-10-21T09:30:12.548Z,14.53
2018-10-21T09:32:44.402Z,14.00
2018-10-21T09:35:22.238Z,13.83
2018-10-21T09:37:57.188Z,13.73
2018-10-21T09:40:30.791Z,12.47
2018-10-21T09:43:04.418Z,13.70
2018-10-21T09:45:37.147Z,12.77
2018-10-21T09:48:10.686Z,12.90
2018-10-21T09:50:43.791Z,13.00
2018-10-21T09:53:15.649Z,13.90
2018-10-21T09:55:49.731Z,12.57
2018-10-21T09:58:21.522Z,13.40
2018-10-21T10:01:02.405Z,13.03
2018-10-21T10:03:33.823Z,12.60
2018-10-21T10:06:07.801Z,12.47
2018-10-21T10:08:42.696Z,12.77
2018-10-21T10:11:13.872Z,12.47
2018-10-21T10:13:47.541Z,11.37
2018-10-21T10:16:20.083Z,11.40
2018-10-21T10:18:53.536Z,10.67
2018-10-21T10:21:26.399Z,10.13
2018-10-21T10:24:01.256Z,10.07
2018-10-21T10:26:38.174Z,9.67
2018-10-21T10:29:15.372Z,9.20
2018-10-21T10:31:48.077Z,8.63
2018-10-21T10:34:20.229Z,8.23
2018-10-21T10:36:53.429Z,8.20
2018-10-21T10:39:25.298Z,7.20
2018-10-21T10:41:56.858Z,8.40
2018-10-21T10:44:32.974Z,7.50
2018-10-21T10:47:08.469Z,7.90
2018-10-21T10:49:45.850Z,7.03
2018-10-21T10:52:19.237Z,6.90
2018-10-21T10:54:56.450Z,6.40
2018-10-21T10:57:29.835Z,6.77
2018-10-21T11:00:03.357Z,6.93
2018-10-21T11:02:37.757Z,6.10
2018-10-21T11:05:11.068Z,6.27
2018-10-21T11:07:45.038Z,6.37
2018-10-21T11:10:16.000Z,6.60
2018-10-21T11:12:48.248Z,6.70
2018-10-21T11:15:21.166Z,6.20
2018-10-21T11:17:51.821Z,7.17
2018-10-21T11:20:26.930Z,6.20
2018-10-21T11:23:00.260Z,5.07
2018-10-21T11:25:46.919Z,5.17
2018-10-21T11:28:28.151Z,5.67
2018-10-21T11:31:00.121Z,5.00
2018-10-21T11:33:30.961Z,4.83
2018-10-21T11:36:03.014Z,5.70
2018-10-21T11:38:43.245Z,5.43
2018-10-21T11:41:16.391Z,5.57
2018-10-21T11:43:48.404Z,5.47
2018-10-21T11:46:24.945Z,5.27
2018-10-21T11:48:57.811Z,4.50
2018-10-21T11:51:30.880Z,4.20
2018-10-21T11:54:03.437Z,4.23
2018-10-21T11:56:39.966Z,4.00
2018-10-21T11:59:10.942Z,4.80
2018-10-21T12:01:42.827Z,3.97
2018-10-21T12:04:13.071Z,3.90
2018-10-21T12:06:47.036Z,4.60
2018-10-21T12:09:18.573Z,4.13
2018-10-21T12:11:51.606Z,4.00
2018-10-21T12:14:23.112Z,3.73
2018-10-21T12:16:54.402Z,4.47
2018-10-21T12:19:32.486Z,4.10
2018-10-21T12:22:04.413Z,4.23
2018-10-21T12:24:37.059Z,3.50
2018-10-21T12:27:12.763Z,3.90
2018-10-21T12:29:45.601Z,3.40
2018-10-21T12:32:19.099Z,3.63
2018-10-21T12:34:53.243Z,3.57
2018-10-21T12:37:25.703Z,3.50
2018-10-21T12:39:57.872Z,3.40
2018-10-21T12:42:28.527Z,3.50
2018-10-21T12:44:58.867Z,3.80
2018-10-21T12:47:35.806Z,3.70
2018-10-21T12:50:07.544Z,3.50
2018-10-21T12:52:43.444Z,3.10
2018-10-21T12:55:16.346Z,3.07
2018-10-21T13:00:40.603Z,2.70
2018-10-21T13:03:16.250Z,2.87
2018-10-21T13:05:46.682Z,2.77
2018-10-21T13:08:22.230Z,2.90
2018-10-21T13:10:53.503Z,2.73
2018-10-21T13:13:24.552Z,3.13
2018-10-21T13:16:01.591Z,3.05
2018-10-21T13:18:34.228Z,2.57
2018-10-21T13:21:08.397Z,2.83
2018-10-21T13:23:40.829Z,2.93
2018-10-21T13:26:14.464Z,3.17
2018-10-21T13:28:50.248Z,3.10
2018-10-21T13:31:29.178Z,2.90
2018-10-21T13:34:00.396Z,3.17
2018-10-21T13:36:33.968Z,3.10
2018-10-21T13:39:07.457Z,2.63
2018-10-21T13:41:39.769Z,2.40
2018-10-21T13:44:10.010Z,2.33
2018-10-21T13:46:41.322Z,2.30
2018-10-21T13:49:14.821Z,2.70
2018-10-21T13:51:47.255Z,2.75
2018-10-21T13:54:23.066Z,2.80
2018-10-21T13:56:56.794Z,2.83
2018-10-21T13:59:30.272Z,2.92
2018-10-21T14:02:03.000Z,2.50
2018-10-21T14:04:36.610Z,2.60
2018-10-21T14:07:13.719Z,2.75
2018-10-21T14:09:45.358Z,2.40
2018-10-21T14:12:16.862Z,2.72
2018-10-21T14:14:49.508Z,2.77
2018-10-21T14:17:23.241Z,2.27
2018-10-21T14:19:54.939Z,2.58
2018-10-21T14:22:29.538Z,2.40
2018-10-21T14:25:02.535Z,1.87
2018-10-21T14:27:41.612Z,2.70
2018-10-21T14:30:15.306Z,2.15
2018-10-21T14:32:47.018Z,2.47
2018-10-21T14:35:18.957Z,2.25
2018-10-21T14:37:49.286Z,2.27
2018-10-21T14:40:22.781Z,2.30
2018-10-21T14:43:00.726Z,2.30
2018-10-21T14:45:33.592Z,2.40
2018-10-21T14:48:05.751Z,2.17
2018-10-21T14:50:37.004Z,2.87
2018-10-21T14:53:09.184Z,2.60
2018-10-21T14:55:40.697Z,2.40
2018-10-21T14:58:13.894Z,2.08
2018-10-21T15:00:45.696Z,2.20
2018-10-21T15:03:19.139Z,2.30
2018-10-21T15:05:49.964Z,2.10
2018-10-21T15:08:25.536Z,2.00
2018-10-21T15:10:57.630Z,2.10
2018-10-21T15:13:29.636Z,2.37
2018-10-21T15:16:01.951Z,2.03
2018-10-21T15:21:43.984Z,2.43
2018-10-21T15:24:18.388Z,2.20
2018-10-21T15:26:51.660Z,2.27
2018-10-21T15:29:24.192Z,2.07
2018-10-21T15:31:55.831Z,2.57
2018-10-21T15:34:27.147Z,2.50
2018-10-21T15:36:58.273Z,2.43
2018-10-21T15:39:33.085Z,2.20
2018-10-21T15:42:07.740Z,2.07
2018-10-21T15:44:38.594Z,2.67
2018-10-21T15:47:12.499Z,2.23
2018-10-21T15:49:44.931Z,2.47
2018-10-21T15:52:21.090Z,2.20
2018-10-21T15:54:53.582Z,2.27
2018-10-21T15:57:26.217Z,2.70
2018-10-21T15:59:58.570Z,2.57
2018-10-21T16:02:30.090Z,2.30
2018-10-21T16:05:03.808Z,3.30
2018-10-21T16:07:36.606Z,3.00
2018-10-21T16:10:09.019Z,2.30
2018-10-21T16:12:39.510Z,2.23
2018-10-21T16:15:15.333Z,2.50
2018-10-21T16:17:51.251Z,2.30
2018-10-21T16:20:24.617Z,2.43
2018-10-21T16:23:02.571Z,2.30
2018-10-21T16:25:33.748Z,2.80
2018-10-21T16:28:11.719Z,2.37
2018-10-21T16:30:45.584Z,2.43
2018-10-21T16:33:18.800Z,2.53
2018-10-21T16:35:49.523Z,2.40
2018-10-21T16:38:21.853Z,2.33
2018-10-21T16:41:00.550Z,2.60
2018-10-21T16:43:34.456Z,2.77
2018-10-21T16:46:05.926Z,3.23
2018-10-21T16:48:42.767Z,3.47
2018-10-21T16:51:17.741Z,3.00
2018-10-21T16:53:49.606Z,2.70
2018-10-21T16:56:22.244Z,2.97
2018-10-21T16:58:54.767Z,2.60
2018-10-21T17:01:30.227Z,2.47
2018-10-21T17:04:04.196Z,2.67
2018-10-21T17:06:37.319Z,2.47
2018-10-21T17:09:15.860Z,3.07
2018-10-21T17:11:49.312Z,2.90
2018-10-21T17:14:20.505Z,2.90
2018-10-21T17:16:53.781Z,3.20
2018-10-21T17:19:27.177Z,3.00
2018-10-21T17:22:03.148Z,3.10
2018-10-21T17:24:34.740Z,3.30
2018-10-21T17:27:06.014Z,3.30
2018-10-21T17:29:39.221Z,3.17
2018-10-21T17:32:13.150Z,2.97
2018-10-21T17:34:46.540Z,3.07
2018-10-21T17:37:19.501Z,2.90
2018-10-21T17:39:53.457Z,2.40
2018-10-21T17:42:24.751Z,3.13
2018-10-21T17:44:58.107Z,3.10
2018-10-21T17:47:29.318Z,2.90
2018-10-21T17:50:01.111Z,2.80
2018-10-21T17:52:32.196Z,2.90
2018-10-21T17:55:03.043Z,2.90
2018-10-21T17:57:35.106Z,3.87
2018-10-21T18:00:08.051Z,3.60
2018-10-21T18:02:38.317Z,4.17
2018-10-21T18:05:11.297Z,6.60
2018-10-21T18:07:42.141Z,3.87
2018-10-21T18:10:13.085Z,3.20
2018-10-21T18:12:43.847Z,3.57
2018-10-21T18:15:14.610Z,3.13
2018-10-21T18:17:45.499Z,3.40
2018-10-21T18:20:16.014Z,3.30
2018-10-21T18:22:46.727Z,3.90
2018-10-21T18:25:17.847Z,3.87
2018-10-21T18:27:48.575Z,3.60
2018-10-21T18:30:19.054Z,3.57
2018-10-21T18:32:49.804Z,3.70
2018-10-21T18:35:20.590Z,3.43
2018-10-21T18:37:51.138Z,10.67
2018-10-21T18:40:21.609Z,6.20
2018-10-21T18:42:52.099Z,4.50
2018-10-21T18:45:22.737Z,4.57
2018-10-21T18:47:53.432Z,4.40
2018-10-21T18:50:23.925Z,5.17
2018-10-21T18:52:54.612Z,4.13
2018-10-21T18:55:25.423Z,4.37
2018-10-21T18:57:56.008Z,4.10
2018-10-21T19:00:26.608Z,4.20
2018-10-21T19:02:57.055Z,4.30
2018-10-21T19:05:29.563Z,4.13
2018-10-21T19:07:59.848Z,4.20
2018-10-21T19:10:30.365Z,4.10
2018-10-21T19:13:01.207Z,3.87
2018-10-21T19:15:31.788Z,4.33
2018-10-21T19:18:02.941Z,3.97
2018-10-21T19:20:33.718Z,4.23
2018-10-21T19:23:04.000Z,4.90
2018-10-21T19:25:34.687Z,4.87
2018-10-21T19:28:05.433Z,4.90
2018-10-21T19:30:35.848Z,5.13
2018-10-21T19:33:06.756Z,5.23
2018-10-21T19:35:37.564Z,5.57
2018-10-21T19:38:08.173Z,5.07
2018-10-21T19:40:40.131Z,4.20
2018-10-21T19:43:10.943Z,4.50
2018-10-21T19:45:41.781Z,4.43
2018-10-21T19:48:12.453Z,4.10
2018-10-21T19:50:44.879Z,4.40
2018-10-21T19:53:15.381Z,4.27
2018-10-21T19:55:46.463Z,4.90
2018-10-21T19:58:17.269Z,4.80
2018-10-21T20:00:48.319Z,5.67
2018-10-21T20:03:20.188Z,5.70
2018-10-21T20:05:51.103Z,5.93
2018-10-21T20:08:21.676Z,5.60
2018-10-21T20:10:52.289Z,5.37
2018-10-21T20:13:22.703Z,5.00
2018-10-21T20:15:53.631Z,5.00
2018-10-21T20:18:24.684Z,4.73
2018-10-21T20:20:54.946Z,5.23
2018-10-21T20:23:25.533Z,5.17
2018-10-21T20:25:56.318Z,5.30
2018-10-21T20:28:26.946Z,5.23
2018-10-21T20:30:57.276Z,5.30
2018-10-21T20:33:27.821Z,6.27
2018-10-21T20:35:58.407Z,5.63
2018-10-21T20:38:28.966Z,5.30
2018-10-21T20:40:59.777Z,5.37
2018-10-21T20:43:30.765Z,5.77
2018-10-21T20:46:01.450Z,5.17
2018-10-21T20:48:32.029Z,5.80
2018-10-21T20:51:03.132Z,5.30
2018-10-21T20:53:33.935Z,5.20
2018-10-21T20:56:05.204Z,5.60
2018-10-21T20:58:35.786Z,5.00
2018-10-21T21:01:06.705Z,4.80
2018-10-21T21:03:37.388Z,5.57
2018-10-21T21:06:08.277Z,5.37
2018-10-21T21:08:39.285Z,5.20
2018-10-21T21:11:10.290Z,4.70
2018-10-21T21:13:40.824Z,5.50
2018-10-21T21:16:11.474Z,5.53
2018-10-21T21:18:42.012Z,4.83
2018-10-21T21:21:12.504Z,5.17
2018-10-21T21:23:43.158Z,5.33
2018-10-21T21:26:13.454Z,5.40
2018-10-21T21:28:43.956Z,5.83
2018-10-21T21:31:14.722Z,5.23
2018-10-21T21:33:45.575Z,5.20
2018-10-21T21:36:17.199Z,5.20
2018-10-21T21:38:48.135Z,5.23
2018-10-21T21:41:18.983Z,4.90
2018-10-21T21:43:49.687Z,5.33
2018-10-21T21:46:20.399Z,5.27
2018-10-21T21:48:50.641Z,5.47
2018-10-21T21:51:21.059Z,6.43
2018-10-21T21:53:51.462Z,7.00
2018-10-21T21:56:22.250Z,6.20
2018-10-21T21:58:53.095Z,6.00
2018-10-21T22:01:23.742Z,6.00
2018-10-21T22:03:55.572Z,6.30
2018-10-21T22:06:25.823Z,6.13
2018-10-21T22:08:56.646Z,6.03
2018-10-21T22:11:26.938Z,5.97
2018-10-21T22:13:58.359Z,6.37
2018-10-21T22:16:29.544Z,5.60
2018-10-21T22:19:00.290Z,5.33
2018-10-21T22:21:31.054Z,4.80
2018-10-21T22:24:01.692Z,4.60
2018-10-21T22:26:32.313Z,5.10
2018-10-21T22:29:02.795Z,5.30
2018-10-21T22:31:33.920Z,4.57
2018-10-21T22:34:04.494Z,4.97
2018-10-21T22:36:34.876Z,5.40
2018-10-21T22:39:06.690Z,5.30
2018-10-21T22:41:37.650Z,5.03
2018-10-21T22:44:08.266Z,5.20
2018-10-21T22:46:38.855Z,4.80
2018-10-21T22:49:09.203Z,5.77
2018-10-21T22:51:39.993Z,4.90
2018-10-21T22:54:10.653Z,5.17
2018-10-21T22:56:41.227Z,5.07
2018-10-21T22:59:12.007Z,5.70
2018-10-21T23:01:42.324Z,5.43
2018-10-21T23:04:12.866Z,4.80
2018-10-21T23:06:43.252Z,5.57
2018-10-21T23:09:13.538Z,5.23
2018-10-21T23:11:44.485Z,4.80
2018-10-21T23:14:14.879Z,5.53
2018-10-21T23:16:45.031Z,4.63
2018-10-21T23:19:26.561Z,5.50
2018-10-21T23:21:57.052Z,5.03
2018-10-21T23:24:29.472Z,5.23
2018-10-21T23:26:59.998Z,5.00
2018-10-21T23:29:30.257Z,4.87
2018-10-21T23:32:00.646Z,4.97
2018-10-21T23:34:31.135Z,4.90
2018-10-21T23:37:01.472Z,4.63
2018-10-21T23:39:32.004Z,4.93
2018-10-21T23:42:02.766Z,5.03
2018-10-21T23:44:33.309Z,4.67
2018-10-21T23:47:04.485Z,4.73
2018-10-21T23:49:35.084Z,5.07
2018-10-21T23:52:07.753Z,4.87
2018-10-21T23:54:38.495Z,5.03
2018-10-21T23:57:09.457Z,5.27
2018-10-21T23:59:40.138Z,4.90
